Time;durP1;ratioP1;P1;durP2;ratioP2;P2;SDS_P1;SDS_P2;PMS_P1;PMS_P2;Temp;Humidity;BMP_temperature;BMP_pressure;BME280_temperature;BME280_humidity;BME280_pressure;Samples;Min_cycle;Max_cycle;Signal;HPM_P1;HPM_P2
2022/03/16 00:00:21;;;;;;;45.60;34.75;;;;;;;;;;4955525;29;20051;-68
2022/03/16 00:02:50;;;;;;;46.00;37.58;;;;;;;;;;4956763;29;20062;-68
2022/03/16 00:05:18;;;;;;;45.10;36.47;;;;;;;;;;4956838;28;20065;-68
2022/03/16 00:07:47;;;;;;;42.53;37.38;;;;;;;;;;4956971;28;20058;-67
2022/03/16 00:10:16;;;;;;;44.33;35.65;;;;;;;;;;4955364;29;20061;-68
2022/03/16 00:12:44;;;;;;;42.50;35.05;;;;;;;;;;4956006;28;20152;-68
2022/03/16 00:15:14;;;;;;;46.05;34.53;;;;;;;;;;4956588;28;20082;-68
2022/03/16 00:17:43;;;;;;;48.53;35.67;;;;;;;;;;4956427;29;20059;-64
2022/03/16 00:20:11;;;;;;;45.70;37.30;;;;;;;;;;4956528;28;20141;-64
2022/03/16 00:22:42;;;;;;;43.35;33.72;;;;;;;;;;4955301;29;20070;-64
2022/03/16 00:25:11;;;;;;;46.00;34.95;;;;;;;;;;4956389;29;20147;-64
2022/03/16 00:27:39;;;;;;;53.75;35.33;;;;;;;;;;4955956;28;20047;-64
2022/03/16 00:30:07;;;;;;;47.40;34.03;;;;;;;;;;4955277;29;20051;-64
2022/03/16 00:32:34;;;;;;;42.80;35.20;;;;;;;;;;4956426;28;20040;-64
2022/03/16 00:35:05;;;;;;;48.38;35.65;;;;;;;;;;4956137;28;20135;-64
2022/03/16 00:37:34;;;;;;;45.03;35.80;;;;;;;;;;4970988;28;20051;-64
2022/03/16 00:40:02;;;;;;;44.20;34.78;;;;;;;;;;4970920;28;20565;-64
2022/03/16 00:42:30;;;;;;;47.67;34.75;;;;;;;;;;4956349;29;20122;-64
2022/03/16 00:44:57;;;;;;;49.20;37.30;;;;;;;;;;4954947;29;20130;-64
2022/03/16 00:47:27;;;;;;;46.00;36.30;;;;;;;;;;4956117;28;20569;-65
2022/03/16 00:49:56;;;;;;;47.40;37.00;;;;;;;;;;4954589;29;20578;-64
2022/03/16 00:52:25;;;;;;;45.75;34.35;;;;;;;;;;4955699;28;20479;-64
2022/03/16 00:54:53;;;;;;;46.60;35.38;;;;;;;;;;4956003;29;20167;-64
2022/03/16 00:57:22;;;;;;;47.60;37.85;;;;;;;;;;4954991;29;20074;-65
2022/03/16 00:59:51;;;;;;;46.45;36.50;;;;;;;;;;4955773;29;20403;-64
2022/03/16 01:02:19;;;;;;;45.35;33.83;;;;;;;;;;4956134;28;20051;-64
2022/03/16 01:04:48;;;;;;;49.47;35.72;;;;;;;;;;4955759;29;20135;-64
2022/03/16 01:07:17;;;;;;;41.58;34.70;;;;;;;;;;4955671;29;20066;-64
2022/03/16 01:09:46;;;;;;;49.13;36.45;;;;;;;;;;4955862;28;20405;-65
2022/03/16 01:12:15;;;;;;;42.72;35.33;;;;;;;;;;4955656;29;20442;-64
2022/03/16 01:14:44;;;;;;;48.35;37.30;;;;;;;;;;4970218;28;20119;-64
2022/03/16 01:17:13;;;;;;;45.97;36.13;;;;;;;;;;4955092;28;20078;-64
2022/03/16 01:19:42;;;;;;;42.22;35.58;;;;;;;;;;4955481;29;20236;-64
2022/03/16 01:22:10;;;;;;;48.50;37.10;;;;;;;;;;4955263;29;20055;-64
2022/03/16 01:24:39;;;;;;;42.13;37.05;;;;;;;;;;4954504;28;20075;-65
2022/03/16 01:27:07;;;;;;;46.13;36.60;;;;;;;;;;4955283;28;20151;-64
2022/03/16 01:29:35;;;;;;;45.60;35.60;;;;;;;;;;4969955;28;20056;-67
2022/03/16 01:32:05;;;;;;;49.15;37.17;;;;;;;;;;4954978;29;20550;-67
2022/03/16 01:34:35;;;;;;;42.10;35.13;;;;;;;;;;4955203;28;20138;-67
2022/03/16 01:37:04;;;;;;;42.97;34.72;;;;;;;;;;4955297;28;20435;-67
2022/03/16 01:39:34;;;;;;;47.67;35.40;;;;;;;;;;4955201;28;20514;-67
2022/03/16 01:42:04;;;;;;;44.70;36.40;;;;;;;;;;4955252;28;20491;-67
2022/03/16 01:44:53;;;;;;;51.45;34.50;;;;;;;;;;4955232;28;20075;-65
2022/03/16 01:47:24;;;;;;;45.20;35.33;;;;;;;;;;4955347;28;20055;-65
2022/03/16 01:49:55;;;;;;;45.72;36.15;;;;;;;;;;4955144;28;20391;-65
2022/03/16 01:52:25;;;;;;;51.85;36.15;;;;;;;;;;4955373;28;20561;-65
2022/03/16 01:54:54;;;;;;;48.90;37.75;;;;;;;;;;4953991;29;20063;-65
2022/03/16 01:57:24;;;;;;;47.28;36.75;;;;;;;;;;4955154;28;20055;-65
2022/03/16 01:59:55;;;;;;;40.42;34.35;;;;;;;;;;4953890;28;20194;-65
2022/03/16 02:02:24;;;;;;;44.53;35.08;;;;;;;;;;4969859;28;20070;-65
2022/03/16 02:04:53;;;;;;;51.53;37.08;;;;;;;;;;4953872;29;20048;-65
2022/03/16 02:07:22;;;;;;;44.25;35.10;;;;;;;;;;4955279;28;20163;-65
2022/03/16 02:09:52;;;;;;;42.78;35.15;;;;;;;;;;4954598;29;20593;-65
2022/03/16 02:12:20;;;;;;;48.05;37.42;;;;;;;;;;4955178;28;20057;-65
2022/03/16 02:14:49;;;;;;;48.90;38.28;;;;;;;;;;4954812;29;20051;-65
2022/03/16 02:17:17;;;;;;;45.28;36.47;;;;;;;;;;4954998;29;20133;-65
2022/03/16 02:19:46;;;;;;;47.70;39.58;;;;;;;;;;4954932;29;20043;-65
2022/03/16 02:22:21;;;;;;;50.28;39.05;;;;;;;;;;4954599;29;20077;-65
2022/03/16 02:24:51;;;;;;;44.85;38.03;;;;;;;;;;4955091;29;20063;-66
2022/03/16 02:27:22;;;;;;;44.33;35.65;;;;;;;;;;4954760;29;20055;-65
2022/03/16 02:29:51;;;;;;;49.67;37.65;;;;;;;;;;4954888;29;20510;-65
2022/03/16 02:32:19;;;;;;;49.53;37.03;;;;;;;;;;4953860;29;20061;-64
2022/03/16 02:34:47;;;;;;;49.97;36.95;;;;;;;;;;4955344;28;20502;-64
2022/03/16 02:37:17;;;;;;;49.45;37.03;;;;;;;;;;4957199;29;20063;-64
2022/03/16 02:39:47;;;;;;;45.05;36.35;;;;;;;;;;4958237;29;20051;-64
2022/03/16 02:42:15;;;;;;;49.28;36.88;;;;;;;;;;4958069;29;20059;-64
2022/03/16 02:44:45;;;;;;;47.08;36.28;;;;;;;;;;4958543;29;20155;-64
2022/03/16 02:47:13;;;;;;;44.72;35.75;;;;;;;;;;4958191;28;20043;-64
2022/03/16 02:49:42;;;;;;;45.70;34.40;;;;;;;;;;4956737;29;20059;-65
2022/03/16 02:52:11;;;;;;;47.95;36.88;;;;;;;;;;4958243;28;20051;-65
2022/03/16 02:54:40;;;;;;;44.92;36.30;;;;;;;;;;4958089;29;20455;-64
2022/03/16 02:57:09;;;;;;;52.95;39.13;;;;;;;;;;4957923;29;20058;-65
2022/03/16 02:59:38;;;;;;;50.72;37.85;;;;;;;;;;4957779;29;20090;-64
2022/03/16 03:02:07;;;;;;;46.05;38.33;;;;;;;;;;4958097;28;20086;-65
2022/03/16 03:04:40;;;;;;;50.55;39.78;;;;;;;;;;4958231;29;20043;-64
2022/03/16 03:07:09;;;;;;;47.72;36.97;;;;;;;;;;4958620;29;20051;-65
2022/03/16 03:09:37;;;;;;;47.42;38.80;;;;;;;;;;4957960;29;20143;-65
2022/03/16 03:12:08;;;;;;;51.65;37.22;;;;;;;;;;4957897;29;20384;-64
2022/03/16 03:14:38;;;;;;;49.92;38.00;;;;;;;;;;4957737;28;20101;-65
2022/03/16 03:17:06;;;;;;;47.60;36.10;;;;;;;;;;4957578;28;20054;-65
2022/03/16 03:19:35;;;;;;;43.75;36.60;;;;;;;;;;4957591;29;20483;-65
2022/03/16 03:22:05;;;;;;;48.55;36.83;;;;;;;;;;4957716;29;20047;-66
2022/03/16 03:24:34;;;;;;;43.80;35.08;;;;;;;;;;4957385;29;20075;-68
2022/03/16 03:27:03;;;;;;;47.65;34.38;;;;;;;;;;4957489;29;20422;-68
2022/03/16 03:29:31;;;;;;;45.97;34.83;;;;;;;;;;4957546;28;20047;-68
2022/03/16 03:32:00;;;;;;;45.45;36.03;;;;;;;;;;4956210;29;20061;-68
2022/03/16 03:34:29;;;;;;;43.33;34.50;;;;;;;;;;4957901;29;20414;-68
2022/03/16 03:36:59;;;;;;;50.58;35.05;;;;;;;;;;4957406;29;20406;-68
2022/03/16 03:39:27;;;;;;;47.85;35.80;;;;;;;;;;4957289;29;20259;-68
2022/03/16 03:41:55;;;;;;;52.42;38.72;;;;;;;;;;4957272;29;20059;-69
2022/03/16 03:44:23;;;;;;;44.13;36.88;;;;;;;;;;4972239;28;20075;-68
2022/03/16 03:46:52;;;;;;;48.45;36.05;;;;;;;;;;4955828;28;20514;-68
2022/03/16 03:49:21;;;;;;;44.15;34.28;;;;;;;;;;4957158;29;20054;-68
2022/03/16 03:51:49;;;;;;;42.42;35.22;;;;;;;;;;4956826;28;20459;-68
2022/03/16 03:54:18;;;;;;;43.80;34.83;;;;;;;;;;4955897;29;20089;-65
2022/03/16 03:56:47;;;;;;;41.45;32.88;;;;;;;;;;4957227;29;20094;-65
2022/03/16 03:59:15;;;;;;;44.10;34.28;;;;;;;;;;4956854;28;20047;-65
2022/03/16 04:01:50;;;;;;;48.00;35.28;;;;;;;;;;4957065;28;20051;-68
2022/03/16 04:04:19;;;;;;;41.55;34.35;;;;;;;;;;4956730;28;20063;-68
2022/03/16 04:06:47;;;;;;;51.13;35.35;;;;;;;;;;4956870;28;20098;-68
2022/03/16 04:09:17;;;;;;;49.97;37.45;;;;;;;;;;4956441;28;20047;-68
2022/03/16 04:11:45;;;;;;;44.25;33.53;;;;;;;;;;4956933;28;20059;-68
2022/03/16 04:14:16;;;;;;;47.78;37.28;;;;;;;;;;4955251;29;20506;-68
2022/03/16 04:16:45;;;;;;;42.20;33.60;;;;;;;;;;4956614;28;20055;-65
2022/03/16 04:19:13;;;;;;;46.10;35.97;;;;;;;;;;4955019;29;20055;-65
2022/03/16 04:21:42;;;;;;;45.05;37.35;;;;;;;;;;4956772;28;20063;-65
2022/03/16 04:24:10;;;;;;;43.67;35.30;;;;;;;;;;4956694;28;20050;-65
2022/03/16 04:26:39;;;;;;;47.40;36.72;;;;;;;;;;4955120;29;20574;-65
2022/03/16 04:29:08;;;;;;;48.85;39.53;;;;;;;;;;4956503;28;20051;-64
2022/03/16 04:31:37;;;;;;;49.47;37.38;;;;;;;;;;4956245;29;20085;-64
2022/03/16 04:34:06;;;;;;;49.00;38.47;;;;;;;;;;4956183;29;20055;-64
2022/03/16 04:36:34;;;;;;;50.33;36.67;;;;;;;;;;4956110;29;20051;-64
2022/03/16 04:39:02;;;;;;;47.20;37.00;;;;;;;;;;4954279;29;20098;-64
2022/03/16 04:41:31;;;;;;;46.33;35.78;;;;;;;;;;4952803;29;20047;-66
2022/03/16 04:44:00;;;;;;;42.63;35.42;;;;;;;;;;4956368;28;20086;-66
2022/03/16 04:46:28;;;;;;;51.22;36.50;;;;;;;;;;4955784;28;20146;-66
2022/03/16 04:48:57;;;;;;;44.33;34.65;;;;;;;;;;4956073;28;20079;-66
2022/03/16 04:51:25;;;;;;;43.22;34.67;;;;;;;;;;4955831;28;20055;-66
2022/03/16 04:53:53;;;;;;;44.08;35.65;;;;;;;;;;4955774;28;20062;-66
2022/03/16 04:56:22;;;;;;;45.63;33.75;;;;;;;;;;4949798;29;20055;-64
2022/03/16 04:58:51;;;;;;;47.00;34.70;;;;;;;;;;4949582;28;20047;-64
2022/03/16 05:01:20;;;;;;;38.67;34.42;;;;;;;;;;4955861;29;20047;-64
2022/03/16 05:03:49;;;;;;;46.70;36.30;;;;;;;;;;4955916;29;20122;-64
2022/03/16 05:06:18;;;;;;;45.97;35.58;;;;;;;;;;4955813;29;20055;-64
2022/03/16 05:08:47;;;;;;;47.40;35.95;;;;;;;;;;4955636;29;20131;-65
2022/03/16 05:11:16;;;;;;;43.33;33.35;;;;;;;;;;4955850;29;20074;-65
2022/03/16 05:13:45;;;;;;;41.42;31.42;;;;;;;;;;4954425;29;20051;-64
2022/03/16 05:16:12;;;;;;;40.90;32.70;;;;;;;;;;4955345;29;20144;-65
2022/03/16 05:18:44;;;;;;;44.92;34.03;;;;;;;;;;4955481;29;20062;-64
2022/03/16 05:21:12;;;;;;;45.90;34.33;;;;;;;;;;4955653;29;20047;-64
2022/03/16 05:23:40;;;;;;;46.10;32.58;;;;;;;;;;4955829;29;20046;-64
2022/03/16 05:26:08;;;;;;;45.47;34.30;;;;;;;;;;4955618;29;20059;-65
2022/03/16 05:28:36;;;;;;;44.13;34.95;;;;;;;;;;4955422;29;20047;-64
2022/03/16 05:31:05;;;;;;;49.00;34.90;;;;;;;;;;4954157;29;20573;-64
2022/03/16 05:33:33;;;;;;;45.42;33.00;;;;;;;;;;4955864;28;20071;-65
2022/03/16 05:36:00;;;;;;;50.33;34.67;;;;;;;;;;4955466;29;20495;-65
2022/03/16 05:38:29;;;;;;;47.63;36.13;;;;;;;;;;4955374;29;20054;-64
2022/03/16 05:40:58;;;;;;;44.70;36.80;;;;;;;;;;4954759;29;20075;-64
2022/03/16 05:43:27;;;;;;;45.38;34.22;;;;;;;;;;4955437;29;20051;-64
2022/03/16 05:46:01;;;;;;;44.78;36.17;;;;;;;;;;4955241;29;20046;-64
2022/03/16 05:48:36;;;;;;;43.25;32.50;;;;;;;;;;4955344;29;20055;-64
2022/03/16 05:51:03;;;;;;;44.40;35.28;;;;;;;;;;4954781;29;20055;-65
2022/03/16 05:53:32;;;;;;;45.55;35.83;;;;;;;;;;4955273;29;20066;-65
2022/03/16 05:56:01;;;;;;;48.15;36.38;;;;;;;;;;4954795;28;20406;-68
2022/03/16 05:58:30;;;;;;;47.78;34.92;;;;;;;;;;4953608;28;20048;-68
2022/03/16 06:00:59;;;;;;;44.67;35.13;;;;;;;;;;4953082;28;20411;-66
2022/03/16 06:03:29;;;;;;;43.38;33.83;;;;;;;;;;4951356;28;20054;-67
2022/03/16 06:06:00;;;;;;;43.80;34.03;;;;;;;;;;4951684;29;20050;-67
2022/03/16 06:08:29;;;;;;;48.38;34.78;;;;;;;;;;4950744;29;20069;-66
2022/03/16 06:10:58;;;;;;;41.72;31.45;;;;;;;;;;4952204;28;20083;-66
2022/03/16 06:13:26;;;;;;;46.08;35.00;;;;;;;;;;4958133;29;20498;-67
2022/03/16 06:15:55;;;;;;;52.95;34.95;;;;;;;;;;4958606;29;20146;-67
2022/03/16 06:18:23;;;;;;;41.88;33.08;;;;;;;;;;4958052;29;20039;-67
2022/03/16 06:20:53;;;;;;;50.63;35.40;;;;;;;;;;4957893;29;20047;-66
2022/03/16 06:23:20;;;;;;;47.30;34.80;;;;;;;;;;4956530;29;20043;-66
2022/03/16 06:25:48;;;;;;;45.65;35.95;;;;;;;;;;4956533;29;20047;-65
2022/03/16 06:28:18;;;;;;;47.53;34.60;;;;;;;;;;4956398;29;20054;-64
2022/03/16 06:30:47;;;;;;;48.97;32.90;;;;;;;;;;4954788;28;20066;-65
2022/03/16 06:33:18;;;;;;;45.50;32.55;;;;;;;;;;4955311;28;20098;-64
2022/03/16 06:35:46;;;;;;;50.28;34.40;;;;;;;;;;4957614;28;20114;-65
2022/03/16 06:38:14;;;;;;;48.75;34.17;;;;;;;;;;4957545;28;20051;-64
2022/03/16 06:40:44;;;;;;;51.30;34.17;;;;;;;;;;4956013;28;20415;-64
2022/03/16 06:43:12;;;;;;;46.40;33.72;;;;;;;;;;4956668;28;20102;-64
2022/03/16 06:45:40;;;;;;;45.20;34.03;;;;;;;;;;4954099;28;20138;-64
2022/03/16 06:48:08;;;;;;;49.47;35.35;;;;;;;;;;4952806;28;20055;-64
2022/03/16 06:50:38;;;;;;;40.85;33.83;;;;;;;;;;4957806;28;20051;-64
2022/03/16 06:53:06;;;;;;;49.92;33.78;;;;;;;;;;4953806;28;20050;-64
2022/03/16 06:55:34;;;;;;;45.83;33.28;;;;;;;;;;4957390;28;20070;-64
2022/03/16 06:58:02;;;;;;;47.03;34.20;;;;;;;;;;4952907;29;20102;-65
2022/03/16 07:00:30;;;;;;;46.22;35.00;;;;;;;;;;4956022;29;20142;-65
2022/03/16 07:03:05;;;;;;;44.97;32.92;;;;;;;;;;4953995;28;20499;-65
2022/03/16 07:05:36;;;;;;;57.05;35.65;;;;;;;;;;4956669;28;20055;-64
2022/03/16 07:08:07;;;;;;;46.10;35.25;;;;;;;;;;4954431;28;20051;-64
2022/03/16 07:10:38;;;;;;;46.20;33.85;;;;;;;;;;4957113;28;20043;-64
2022/03/16 07:13:11;;;;;;;48.88;33.35;;;;;;;;;;4956474;28;20570;-65
2022/03/16 07:15:40;;;;;;;45.45;32.97;;;;;;;;;;4957324;28;20043;-64
2022/03/16 07:18:09;;;;;;;37.92;31.90;;;;;;;;;;4957049;29;20083;-65
2022/03/16 07:20:38;;;;;;;48.35;34.30;;;;;;;;;;4956317;28;20388;-65
2022/03/16 07:23:12;;;;;;;47.35;31.17;;;;;;;;;;4955957;29;22426;-64
2022/03/16 07:25:44;;;;;;;45.77;31.30;;;;;;;;;;4956124;28;20051;-64
2022/03/16 07:28:20;;;;;;;43.45;31.40;;;;;;;;;;4955228;29;20048;-64
2022/03/16 07:30:48;;;;;;;44.35;32.72;;;;;;;;;;4956516;28;20502;-64
2022/03/16 07:33:18;;;;;;;45.72;31.88;;;;;;;;;;4956863;28;20039;-64
2022/03/16 07:35:50;;;;;;;57.33;33.65;;;;;;;;;;4954735;29;20062;-64
2022/03/16 07:38:19;;;;;;;43.35;32.00;;;;;;;;;;4957077;28;20059;-64
2022/03/16 07:40:48;;;;;;;47.03;33.40;;;;;;;;;;4975097;28;20082;-64
2022/03/16 07:43:16;;;;;;;38.92;30.92;;;;;;;;;;4956934;28;20051;-64
2022/03/16 07:45:46;;;;;;;43.03;30.45;;;;;;;;;;4956647;29;20062;-64
2022/03/16 07:48:14;;;;;;;37.70;31.30;;;;;;;;;;4961661;28;20083;-64
2022/03/16 07:50:43;;;;;;;39.78;30.85;;;;;;;;;;4955748;29;20043;-64
2022/03/16 07:53:11;;;;;;;48.03;32.70;;;;;;;;;;4956040;29;20058;-64
2022/03/16 07:55:39;;;;;;;39.97;30.10;;;;;;;;;;4954913;29;20051;-63
2022/03/16 07:58:09;;;;;;;47.55;32.47;;;;;;;;;;4955914;28;20487;-65
2022/03/16 08:00:37;;;;;;;39.67;30.85;;;;;;;;;;4956063;29;20167;-65
2022/03/16 08:03:06;;;;;;;50.88;32.83;;;;;;;;;;4956355;29;20059;-65
2022/03/16 08:05:35;;;;;;;38.22;30.67;;;;;;;;;;4955941;29;20114;-65
2022/03/16 08:08:05;;;;;;;47.05;32.75;;;;;;;;;;4956651;29;20110;-65
2022/03/16 08:10:33;;;;;;;37.45;28.73;;;;;;;;;;4959078;28;20047;-64
2022/03/16 08:13:01;;;;;;;44.38;29.30;;;;;;;;;;4956136;29;20047;-65
2022/03/16 08:15:30;;;;;;;44.42;30.02;;;;;;;;;;4954938;29;20546;-65
2022/03/16 08:17:59;;;;;;;35.45;27.70;;;;;;;;;;4963092;28;20050;-68
2022/03/16 08:20:28;;;;;;;37.33;28.05;;;;;;;;;;4955213;29;20047;-66
2022/03/16 08:22:57;;;;;;;34.15;26.88;;;;;;;;;;4956323;29;20059;-66
2022/03/16 08:25:45;;;;;;;36.22;26.88;;;;;;;;;;4956145;28;20438;-64
2022/03/16 08:28:14;;;;;;;36.97;27.85;;;;;;;;;;4956113;29;20062;-66
2022/03/16 08:30:42;;;;;;;50.67;30.58;;;;;;;;;;4955852;28;20127;-66
2022/03/16 08:33:11;;;;;;;30.33;20.75;;;;;;;;;;4955724;28;20047;-66
2022/03/16 08:35:39;;;;;;;26.25;20.30;;;;;;;;;;4955610;29;20063;-66
2022/03/16 08:38:09;;;;;;;26.10;20.42;;;;;;;;;;4955984;29;20051;-67
2022/03/16 08:40:37;;;;;;;27.23;21.92;;;;;;;;;;4958225;28;20059;-67
2022/03/16 08:43:05;;;;;;;24.45;20.55;;;;;;;;;;4947570;29;20110;-67
2022/03/16 08:45:39;;;;;;;30.10;22.52;;;;;;;;;;4955812;29;20066;-67
2022/03/16 08:48:08;;;;;;;28.90;22.23;;;;;;;;;;4960225;28;20439;-66
2022/03/16 08:50:36;;;;;;;29.00;22.98;;;;;;;;;;4954879;28;20051;-66
2022/03/16 08:53:05;;;;;;;24.63;20.85;;;;;;;;;;4955215;28;20047;-67
2022/03/16 08:55:33;;;;;;;24.98;21.38;;;;;;;;;;4954155;29;20047;-66
2022/03/16 08:58:01;;;;;;;32.25;22.02;;;;;;;;;;4954740;29;20053;-67
2022/03/16 09:00:32;;;;;;;27.08;21.20;;;;;;;;;;4955310;28;20058;-67
2022/03/16 09:03:02;;;;;;;28.58;21.58;;;;;;;;;;4955319;28;20059;-67
2022/03/16 09:05:31;;;;;;;29.92;23.30;;;;;;;;;;4955741;28;20451;-67
2022/03/16 09:07:59;;;;;;;30.58;21.33;;;;;;;;;;4953971;29;20594;-68
2022/03/16 09:10:27;;;;;;;24.20;20.90;;;;;;;;;;4954055;29;20130;-66
2022/03/16 09:12:55;;;;;;;30.40;23.85;;;;;;;;;;4955206;28;20051;-66
2022/03/16 09:15:23;;;;;;;25.90;22.60;;;;;;;;;;4955575;28;20079;-66
2022/03/16 09:17:52;;;;;;;29.30;22.25;;;;;;;;;;4955809;28;20047;-66
2022/03/16 09:20:21;;;;;;;22.13;19.83;;;;;;;;;;4955131;29;20047;-66
2022/03/16 09:22:51;;;;;;;28.52;20.90;;;;;;;;;;4955260;29;20047;-66
2022/03/16 09:25:22;;;;;;;26.05;21.35;;;;;;;;;;4954266;29;20053;-66
2022/03/16 09:27:51;;;;;;;25.75;19.27;;;;;;;;;;4955042;28;20080;-67
2022/03/16 09:30:23;;;;;;;24.50;16.83;;;;;;;;;;4954655;28;20063;-67
2022/03/16 09:32:57;;;;;;;22.80;19.83;;;;;;;;;;4954208;28;20065;-67
2022/03/16 09:35:27;;;;;;;26.77;19.45;;;;;;;;;;4954907;28;20102;-67
2022/03/16 09:37:58;;;;;;;22.38;19.98;;;;;;;;;;4955374;29;20525;-67
2022/03/16 09:40:27;;;;;;;22.58;18.85;;;;;;;;;;4954329;29;20055;-67
2022/03/16 09:42:57;;;;;;;23.88;18.50;;;;;;;;;;4955267;29;20057;-67
2022/03/16 09:45:27;;;;;;;23.27;18.15;;;;;;;;;;4954406;28;20048;-67
2022/03/16 09:47:56;;;;;;;22.73;20.40;;;;;;;;;;4953643;29;20047;-67
2022/03/16 09:50:25;;;;;;;25.65;20.35;;;;;;;;;;4955006;28;20059;-67
2022/03/16 09:52:56;;;;;;;23.52;19.55;;;;;;;;;;4954809;28;20081;-67
2022/03/16 09:55:23;;;;;;;22.95;20.55;;;;;;;;;;4955039;28;20078;-67
2022/03/16 09:57:53;;;;;;;25.40;20.77;;;;;;;;;;4954534;28;20059;-67
2022/03/16 10:00:21;;;;;;;25.50;21.65;;;;;;;;;;4954011;29;20106;-67
2022/03/16 10:02:51;;;;;;;25.80;23.15;;;;;;;;;;4954200;28;20051;-67
2022/03/16 10:05:22;;;;;;;30.23;21.80;;;;;;;;;;4954726;28;20550;-67
2022/03/16 10:07:59;;;;;;;29.13;21.35;;;;;;;;;;4954741;28;20517;-67
2022/03/16 10:13:19;;;;;;;23.90;21.40;;;;;;;;;;4945031;29;20074;-67
2022/03/16 10:16:08;;;;;;;26.35;22.80;;;;;;;;;;4952583;29;20039;-66
2022/03/16 10:18:37;;;;;;;22.67;20.45;;;;;;;;;;4956624;28;20047;-67
2022/03/16 10:21:10;;;;;;;26.10;20.40;;;;;;;;;;4953078;29;20058;-67
2022/03/16 10:23:40;;;;;;;21.83;19.52;;;;;;;;;;4953789;29;20130;-67
2022/03/16 10:26:08;;;;;;;23.40;20.83;;;;;;;;;;4953948;28;20047;-67
2022/03/16 10:28:38;;;;;;;24.67;20.25;;;;;;;;;;4954248;28;20046;-67
2022/03/16 10:31:08;;;;;;;30.33;21.70;;;;;;;;;;4953443;28;20467;-65
2022/03/16 10:33:51;;;;;;;25.35;19.65;;;;;;;;;;4951973;29;20057;-67
2022/03/16 10:36:21;;;;;;;23.38;20.00;;;;;;;;;;4954291;28;20047;-65
2022/03/16 10:39:02;;;;;;;25.13;20.77;;;;;;;;;;4952513;29;20143;-66
2022/03/16 10:47:15;;;;;;;22.90;18.67;;;;;;;;;;4953316;29;20074;-66
2022/03/16 10:49:48;;;;;;;20.90;18.20;;;;;;;;;;4954242;28;20087;-68
2022/03/16 10:52:19;;;;;;;19.67;16.90;;;;;;;;;;4954074;28;20178;-68
2022/03/16 10:54:48;;;;;;;20.77;16.65;;;;;;;;;;4944709;29;20074;-68
2022/03/16 10:57:16;;;;;;;23.20;17.70;;;;;;;;;;4956776;28;20471;-68
2022/03/16 10:59:49;;;;;;;21.70;19.25;;;;;;;;;;4957925;29;20106;-68
2022/03/16 11:02:18;;;;;;;24.30;18.23;;;;;;;;;;4957713;29;20131;-68
2022/03/16 11:04:50;;;;;;;29.25;20.65;;;;;;;;;;4956466;28;20051;-69
2022/03/16 11:07:19;;;;;;;24.73;19.45;;;;;;;;;;4956946;28;20047;-72
2022/03/16 11:09:48;;;;;;;24.42;19.95;;;;;;;;;;4956270;28;20102;-67
2022/03/16 11:15:09;;;;;;;21.98;18.02;;;;;;;;;;4956843;29;20416;-67
2022/03/16 11:17:39;;;;;;;22.00;19.70;;;;;;;;;;4956460;29;20089;-67
2022/03/16 11:20:10;;;;;;;33.70;21.88;;;;;;;;;;4957115;29;20055;-67
2022/03/16 11:24:16;;;;;;;21.85;19.10;;;;;;;;;;4957385;29;20051;-67
2022/03/16 11:26:11;;;;;;;21.80;17.63;;;;;;;;;;4956944;28;20510;-67
2022/03/16 11:29:02;;;;;;;21.05;18.85;;;;;;;;;;4944294;29;20134;-67
2022/03/16 11:31:34;;;;;;;20.83;16.73;;;;;;;;;;4957050;28;20098;-67
2022/03/16 11:34:08;;;;;;;20.13;18.23;;;;;;;;;;4957125;29;20406;-67
2022/03/16 11:36:40;;;;;;;19.02;15.77;;;;;;;;;;4957042;29;20055;-67
2022/03/16 11:39:16;;;;;;;20.23;17.38;;;;;;;;;;4957161;28;20043;-67
2022/03/16 11:41:52;;;;;;;32.40;17.80;;;;;;;;;;4957019;28;20047;-68
2022/03/16 11:44:26;;;;;;;19.50;17.40;;;;;;;;;;4958920;28;20167;-68
2022/03/16 11:47:22;;;;;;;22.40;19.98;;;;;;;;;;4951763;29;20529;-67
2022/03/16 11:50:04;;;;;;;;;;;;;;;;;;4952663;29;20122;-68
2022/03/16 11:52:58;;;;;;;22.88;20.67;;;;;;;;;;4954722;28;19930;-68
2022/03/16 11:55:43;;;;;;;;;;;;;;;;;;4953960;29;20074;-69
2022/03/16 11:58:25;;;;;;;27.85;20.15;;;;;;;;;;4952886;28;19922;-69
2022/03/16 12:01:24;;;;;;;30.83;21.50;;;;;;;;;;4956083;28;20051;-62
2022/03/16 12:04:25;;;;;;;25.23;19.80;;;;;;;;;;4953579;28;20051;-62
2022/03/16 12:06:53;;;;;;;23.98;21.42;;;;;;;;;;4953947;28;20130;-63
2022/03/16 12:09:31;;;;;;;24.40;18.83;;;;;;;;;;4955714;29;20055;-64
2022/03/16 12:15:01;;;;;;;25.05;18.38;;;;;;;;;;4949433;29;20059;-64
2022/03/16 12:17:30;;;;;;;23.20;18.08;;;;;;;;;;4954004;29;20106;-63
2022/03/16 12:20:24;;;;;;;21.40;18.85;;;;;;;;;;4956038;28;20114;-64
2022/03/16 12:23:16;;;;;;;23.37;18.23;;;;;;;;;;4953870;28;20491;-64
2022/03/16 12:26:08;;;;;;;23.85;19.35;;;;;;;;;;4952500;29;20384;-62
2022/03/16 12:28:58;;;;;;;19.98;17.60;;;;;;;;;;4955579;28;20047;-62
2022/03/16 12:31:26;;;;;;;26.92;19.42;;;;;;;;;;4952525;28;20186;-63
2022/03/16 12:33:56;;;;;;;25.98;17.80;;;;;;;;;;4954999;29;20035;-63
2022/03/16 12:36:33;;;;;;;23.05;18.98;;;;;;;;;;4952643;28;20451;-63
2022/03/16 12:39:07;;;;;;;21.33;19.05;;;;;;;;;;4952727;28;20047;-62
2022/03/16 12:44:45;;;;;;;22.25;18.77;;;;;;;;;;4955986;28;20498;-62
2022/03/16 12:47:50;;;;;;;26.08;19.33;;;;;;;;;;4951861;28;20499;-62
2022/03/16 12:50:19;;;;;;;18.42;15.63;;;;;;;;;;4955466;28;20108;-62
2022/03/16 12:52:51;;;;;;;17.58;15.75;;;;;;;;;;4955638;29;20172;-62
2022/03/16 12:55:19;;;;;;;15.85;13.98;;;;;;;;;;4955638;28;20050;-62
2022/03/16 12:58:11;;;;;;;16.90;14.13;;;;;;;;;;4954159;29;20418;-62
2022/03/16 13:00:40;;;;;;;17.67;15.30;;;;;;;;;;4954198;29;20043;-62
2022/03/16 13:03:14;;;;;;;18.83;14.65;;;;;;;;;;4954504;28;20102;-62
2022/03/16 13:05:44;;;;;;;19.02;13.65;;;;;;;;;;4953735;28;20061;-62
2022/03/16 13:08:13;;;;;;;18.83;16.02;;;;;;;;;;4954500;28;20142;-62
2022/03/16 13:13:30;;;;;;;18.63;14.63;;;;;;;;;;4954604;28;20055;-62
2022/03/16 13:16:00;;;;;;;18.63;14.05;;;;;;;;;;4953498;29;20047;-62
2022/03/16 13:18:34;;;;;;;19.52;13.57;;;;;;;;;;4953271;28;20513;-62
2022/03/16 13:21:23;;;;;;;14.90;12.73;;;;;;;;;;4955306;28;20546;-62
2022/03/16 13:24:05;;;;;;;17.85;13.27;;;;;;;;;;4955359;28;20051;-62
2022/03/16 13:26:35;;;;;;;15.90;13.15;;;;;;;;;;4954614;28;20507;-62
2022/03/16 13:29:09;;;;;;;16.60;14.07;;;;;;;;;;4958116;28;20047;-63
2022/03/16 13:31:41;;;;;;;15.27;12.70;;;;;;;;;;4954635;28;20059;-63
2022/03/16 13:34:10;;;;;;;14.32;12.75;;;;;;;;;;4953623;29;20706;-63
2022/03/16 13:36:39;;;;;;;15.38;13.07;;;;;;;;;;4954614;29;20130;-63
2022/03/16 13:39:27;;;;;;;13.60;12.20;;;;;;;;;;4955140;29;20054;-63
2022/03/16 13:42:13;;;;;;;17.27;13.48;;;;;;;;;;4960841;28;20051;-63
2022/03/16 13:44:43;;;;;;;15.10;12.15;;;;;;;;;;4954890;29;20062;-63
2022/03/16 13:47:17;;;;;;;15.15;12.18;;;;;;;;;;4954055;29;20051;-63
2022/03/16 13:49:45;;;;;;;;;;;;;;;;;;4954607;29;20112;-63
2022/03/16 13:52:41;;;;;;;13.00;11.50;;;;;;;;;;4944009;29;19954;-63
2022/03/16 13:55:12;;;;;;;15.20;13.57;;;;;;;;;;4954562;29;20059;-63
2022/03/16 13:57:43;;;;;;;13.27;11.80;;;;;;;;;;4954966;28;20090;-63
2022/03/16 14:00:14;;;;;;;15.95;12.43;;;;;;;;;;4951997;29;20478;-63
2022/03/16 14:02:44;;;;;;;19.88;12.35;;;;;;;;;;4951307;28;20126;-63
2022/03/16 14:05:19;;;;;;;15.98;14.20;;;;;;;;;;4954378;28;20077;-63
2022/03/16 14:07:50;;;;;;;20.23;14.40;;;;;;;;;;4954432;28;20063;-63
2022/03/16 14:10:24;;;;;;;14.73;13.13;;;;;;;;;;4954557;28;20080;-63
2022/03/16 14:13:05;;;;;;;14.10;12.55;;;;;;;;;;4957796;28;20051;-63
2022/03/16 14:15:34;;;;;;;17.27;12.63;;;;;;;;;;4954302;28;20106;-63
2022/03/16 14:18:16;;;;;;;22.50;15.38;;;;;;;;;;4954544;28;20106;-63
2022/03/16 14:20:51;;;;;;;;;;;;;;;;;;4953674;29;20074;-62
2022/03/16 14:23:21;;;;;;;18.67;15.45;;;;;;;;;;4955098;28;19922;-66
2022/03/16 14:25:51;;;;;;;16.73;13.93;;;;;;;;;;4954177;28;20578;-66
2022/03/16 14:28:21;;;;;;;20.42;15.88;;;;;;;;;;4961550;28;20059;-63
2022/03/16 14:30:52;;;;;;;20.63;15.35;;;;;;;;;;4955433;28;20168;-63
2022/03/16 14:33:25;;;;;;;20.38;15.75;;;;;;;;;;4958245;29;20478;-63
2022/03/16 14:35:56;;;;;;;15.53;13.93;;;;;;;;;;4956419;29;20105;-63
2022/03/16 14:38:24;;;;;;;16.55;13.20;;;;;;;;;;4957132;29;20055;-64
2022/03/16 14:40:55;;;;;;;15.15;13.10;;;;;;;;;;4964373;28;20091;-62
2022/03/16 14:43:52;;;;;;;17.27;14.35;;;;;;;;;;4954226;28;20106;-62
2022/03/16 14:46:22;;;;;;;17.20;13.73;;;;;;;;;;4956926;28;20565;-62
2022/03/16 14:48:52;;;;;;;18.35;14.93;;;;;;;;;;4957204;28;20047;-62
2022/03/16 14:51:21;;;;;;;18.20;14.65;;;;;;;;;;4957790;28;20051;-62
2022/03/16 14:53:49;;;;;;;17.55;13.05;;;;;;;;;;4957420;28;20059;-63
2022/03/16 14:56:19;;;;;;;17.83;15.13;;;;;;;;;;4955949;29;20529;-62
2022/03/16 14:58:48;;;;;;;16.20;14.60;;;;;;;;;;4955620;29;20061;-62
2022/03/16 15:01:16;;;;;;;19.70;17.15;;;;;;;;;;4956542;29;20067;-61